sensor_id;sensor_type;location;lat;lon;timestamp;pressure;altitude;pressure_sealevel;temperature;humidity
54556;BME280;57291;37.520;15.106;2023-04-10T00:00:35;101390.38;;;11.53;61.47
54556;BME280;57291;37.520;15.106;2023-04-10T00:03:04;101395.28;;;11.51;61.57
54556;BME280;57291;37.520;15.106;2023-04-10T00:05:31;101395.56;;;11.49;61.11
54556;BME280;57291;37.520;15.106;2023-04-10T00:07:59;101395.91;;;11.43;61.18
54556;BME280;57291;37.520;15.106;2023-04-10T00:10:26;101404.88;;;11.43;61.26
54556;BME280;57291;37.520;15.106;2023-04-10T00:12:57;101396.75;;;11.38;61.45
54556;BME280;57291;37.520;15.106;2023-04-10T00:15:26;101393.75;;;11.40;61.30
54556;BME280;57291;37.520;15.106;2023-04-10T00:17:54;101396.16;;;11.41;61.71
54556;BME280;57291;37.520;15.106;2023-04-10T00:20:22;101402.16;;;11.43;61.65
54556;BME280;57291;37.520;15.106;2023-04-10T00:22:49;101399.44;;;11.43;61.51
54556;BME280;57291;37.520;15.106;2023-04-10T00:25:16;101392.13;;;11.39;61.48
54556;BME280;57291;37.520;15.106;2023-04-10T00:27:44;101392.13;;;11.39;61.09
54556;BME280;57291;37.520;15.106;2023-04-10T00:30:12;101386.44;;;11.35;61.03
54556;BME280;57291;37.520;15.106;2023-04-10T00:32:39;101394.06;;;11.33;60.97
54556;BME280;57291;37.520;15.106;2023-04-10T00:35:07;101390.00;;;11.31;61.22
54556;BME280;57291;37.520;15.106;2023-04-10T00:37:35;101392.97;;;11.34;61.38
54556;BME280;57291;37.520;15.106;2023-04-10T00:40:03;101384.00;;;11.34;61.46
54556;BME280;57291;37.520;15.106;2023-04-10T00:42:31;101392.69;;;11.36;61.04
54556;BME280;57291;37.520;15.106;2023-04-10T00:44:59;101389.13;;;11.40;60.62
54556;BME280;57291;37.520;15.106;2023-04-10T00:47:26;101377.66;;;11.43;60.45
54556;BME280;57291;37.520;15.106;2023-04-10T00:49:54;101389.09;;;11.45;60.09
54556;BME280;57291;37.520;15.106;2023-04-10T00:52:22;101386.38;;;11.45;60.41
54556;BME280;57291;37.520;15.106;2023-04-10T00:54:50;101392.13;;;11.39;60.89
54556;BME280;57291;37.520;15.106;2023-04-10T00:57:18;101397.34;;;11.30;61.33
54556;BME280;57291;37.520;15.106;2023-04-10T00:59:45;101383.53;;;11.21;61.50
54556;BME280;57291;37.520;15.106;2023-04-10T01:02:14;101378.91;;;11.22;61.72
54556;BME280;57291;37.520;15.106;2023-04-10T01:04:42;101381.63;;;11.22;61.42
54556;BME280;57291;37.520;15.106;2023-04-10T01:10:25;101377.81;;;11.23;61.41
54556;BME280;57291;37.520;15.106;2023-04-10T01:13:13;101375.09;;;11.23;60.97
54556;BME280;57291;37.520;15.106;2023-04-10T01:16:10;101367.50;;;11.20;60.88
54556;BME280;57291;37.520;15.106;2023-04-10T01:19:08;101384.06;;;11.23;60.50
54556;BME280;57291;37.520;15.106;2023-04-10T01:21:41;101378.34;;;11.25;61.25
54556;BME280;57291;37.520;15.106;2023-04-10T01:24:23;101376.19;;;11.22;64.17
54556;BME280;57291;37.520;15.106;2023-04-10T01:29:51;101375.44;;;11.11;65.52
54556;BME280;57291;37.520;15.106;2023-04-10T01:32:21;101377.44;;;11.00;65.57
54556;BME280;57291;37.520;15.106;2023-04-10T01:34:54;101387.84;;;10.88;65.32
54556;BME280;57291;37.520;15.106;2023-04-10T01:37:30;101392.22;;;10.79;64.94
54556;BME280;57291;37.520;15.106;2023-04-10T01:40:02;101394.13;;;10.78;63.93
54556;BME280;57291;37.520;15.106;2023-04-10T01:42:31;101385.72;;;10.80;63.18
54556;BME280;57291;37.520;15.106;2023-04-10T01:45:02;101376.75;;;10.79;62.86
54556;BME280;57291;37.520;15.106;2023-04-10T01:47:30;101372.13;;;10.80;62.35
54556;BME280;57291;37.520;15.106;2023-04-10T01:49:59;101378.91;;;10.83;61.71
54556;BME280;57291;37.520;15.106;2023-04-10T01:52:29;101370.47;;;10.84;61.71
54556;BME280;57291;37.520;15.106;2023-04-10T01:55:13;101369.66;;;10.78;61.71
54556;BME280;57291;37.520;15.106;2023-04-10T01:57:45;101367.75;;;10.79;61.82
54556;BME280;57291;37.520;15.106;2023-04-10T02:00:17;101371.31;;;10.79;61.56
54556;BME280;57291;37.520;15.106;2023-04-10T02:02:44;101367.75;;;10.79;61.65
54556;BME280;57291;37.520;15.106;2023-04-10T02:05:15;101365.91;;;10.74;62.44
54556;BME280;57291;37.520;15.106;2023-04-10T02:07:54;101375.97;;;10.69;62.79
54556;BME280;57291;37.520;15.106;2023-04-10T02:10:40;101361.63;;;10.63;63.22
54556;BME280;57291;37.520;15.106;2023-04-10T02:13:13;101360.25;;;10.61;63.01
54556;BME280;57291;37.520;15.106;2023-04-10T02:15:45;101353.16;;;10.65;62.83
54556;BME280;57291;37.520;15.106;2023-04-10T02:18:15;101349.09;;;10.62;63.25
54556;BME280;57291;37.520;15.106;2023-04-10T02:20:43;101346.41;;;10.57;63.64
54556;BME280;57291;37.520;15.106;2023-04-10T02:23:11;101344.00;;;10.50;63.83
54556;BME280;57291;37.520;15.106;2023-04-10T02:25:41;101343.75;;;10.47;63.76
54556;BME280;57291;37.520;15.106;2023-04-10T02:28:08;101345.94;;;10.45;63.78
54556;BME280;57291;37.520;15.106;2023-04-10T02:30:35;101355.19;;;10.44;63.77
54556;BME280;57291;37.520;15.106;2023-04-10T02:33:03;101359.53;;;10.45;63.46
54556;BME280;57291;37.520;15.106;2023-04-10T02:35:30;101359.81;;;10.43;63.56
54556;BME280;57291;37.520;15.106;2023-04-10T02:37:58;101366.88;;;10.39;64.28
54556;BME280;57291;37.520;15.106;2023-04-10T02:40:25;101377.22;;;10.37;64.38
54556;BME280;57291;37.520;15.106;2023-04-10T02:43:05;101376.41;;;10.37;64.02
54556;BME280;57291;37.520;15.106;2023-04-10T02:45:33;101373.16;;;10.35;64.13
54556;BME280;57291;37.520;15.106;2023-04-10T02:48:00;101378.28;;;10.36;64.22
54556;BME280;57291;37.520;15.106;2023-04-10T02:50:27;101368.28;;;10.31;64.12
54556;BME280;57291;37.520;15.106;2023-04-10T02:52:58;101372.34;;;10.34;64.48
54556;BME280;57291;37.520;15.106;2023-04-10T02:55:25;101369.06;;;10.32;64.72
54556;BME280;57291;37.520;15.106;2023-04-10T02:57:53;101374.25;;;10.28;65.04
54556;BME280;57291;37.520;15.106;2023-04-10T03:00:20;101375.63;;;10.31;64.76
54556;BME280;57291;37.520;15.106;2023-04-10T03:03:20;101375.31;;;10.38;64.34
54556;BME280;57291;37.520;15.106;2023-04-10T03:05:52;101381.00;;;10.41;63.73
54556;BME280;57291;37.520;15.106;2023-04-10T03:08:26;101383.44;;;10.43;63.44
54556;BME280;57291;37.520;15.106;2023-04-10T03:10:53;101376.13;;;10.43;63.66
54556;BME280;57291;37.520;15.106;2023-04-10T03:13:20;101373.91;;;10.45;63.37
54556;BME280;57291;37.520;15.106;2023-04-10T03:15:49;101372.25;;;10.54;63.12
54556;BME280;57291;37.520;15.106;2023-04-10T03:18:16;101371.38;;;10.64;63.17
54556;BME280;57291;37.520;15.106;2023-04-10T03:20:45;101350.69;;;10.73;62.79
54556;BME280;57291;37.520;15.106;2023-04-10T03:23:12;101347.91;;;10.84;62.57
54556;BME280;57291;37.520;15.106;2023-04-10T03:25:40;101347.03;;;10.88;62.82
54556;BME280;57291;37.520;15.106;2023-04-10T03:28:08;101356.25;;;10.92;63.13
54556;BME280;57291;37.520;15.106;2023-04-10T03:30:35;101356.22;;;10.97;62.48
54556;BME280;57291;37.520;15.106;2023-04-10T03:33:03;101361.13;;;10.95;62.21
54556;BME280;57291;37.520;15.106;2023-04-10T03:35:30;101369.28;;;10.95;62.17
54556;BME280;57291;37.520;15.106;2023-04-10T03:37:58;101374.78;;;10.90;62.63
54556;BME280;57291;37.520;15.106;2023-04-10T03:40:25;101369.66;;;10.84;62.64
54556;BME280;57291;37.520;15.106;2023-04-10T03:42:53;101378.63;;;10.79;62.94
54556;BME280;57291;37.520;15.106;2023-04-10T03:45:20;101370.53;;;10.74;62.69
54556;BME280;57291;37.520;15.106;2023-04-10T03:47:47;101376.78;;;10.69;62.96
54556;BME280;57291;37.520;15.106;2023-04-10T03:50:15;101375.72;;;10.65;63.15
54556;BME280;57291;37.520;15.106;2023-04-10T03:52:51;101374.97;;;10.60;63.30
54556;BME280;57291;37.520;15.106;2023-04-10T03:55:21;101368.72;;;10.54;63.33
54556;BME280;57291;37.520;15.106;2023-04-10T03:57:50;101372.56;;;10.48;63.46
54556;BME280;57291;37.520;15.106;2023-04-10T04:00:20;101378.28;;;10.46;63.76
54556;BME280;57291;37.520;15.106;2023-04-10T04:02:47;101377.72;;;10.44;63.60
54556;BME280;57291;37.520;15.106;2023-04-10T04:05:36;101381.00;;;10.46;63.53
54556;BME280;57291;37.520;15.106;2023-04-10T04:08:22;101382.31;;;10.49;63.51
54556;BME280;57291;37.520;15.106;2023-04-10T04:11:12;101372.25;;;10.49;63.32
54556;BME280;57291;37.520;15.106;2023-04-10T04:13:51;101372.53;;;10.53;63.48
54556;BME280;57291;37.520;15.106;2023-04-10T04:16:41;101383.13;;;10.54;63.38
54556;BME280;57291;37.520;15.106;2023-04-10T04:19:27;101371.19;;;10.45;63.58
54556;BME280;57291;37.520;15.106;2023-04-10T04:22:20;101387.25;;;10.47;63.94
54556;BME280;57291;37.520;15.106;2023-04-10T04:25:06;101384.78;;;10.50;63.91
54556;BME280;57291;37.520;15.106;2023-04-10T04:27:59;101385.34;;;10.47;63.66
54556;BME280;57291;37.520;15.106;2023-04-10T04:30:39;101395.41;;;10.47;63.86
54556;BME280;57291;37.520;15.106;2023-04-10T04:33:36;101391.31;;;10.44;64.01
54556;BME280;57291;37.520;15.106;2023-04-10T04:36:21;101386.69;;;10.50;64.28
54556;BME280;57291;37.520;15.106;2023-04-10T04:39:12;101385.00;;;10.59;64.12
54556;BME280;57291;37.520;15.106;2023-04-10T04:41:48;101387.94;;;10.68;64.00
54556;BME280;57291;37.520;15.106;2023-04-10T04:44:29;101390.09;;;10.76;64.98
54556;BME280;57291;37.520;15.106;2023-04-10T04:47:25;101403.16;;;10.74;65.16
54556;BME280;57291;37.520;15.106;2023-04-10T04:50:15;101393.63;;;10.76;65.02
54556;BME280;57291;37.520;15.106;2023-04-10T04:53:08;101393.44;;;11.07;64.83
54556;BME280;57291;37.520;15.106;2023-04-10T04:55:54;101393.97;;;11.48;63.98
54556;BME280;57291;37.520;15.106;2023-04-10T04:58:39;101400.69;;;11.56;62.68
54556;BME280;57291;37.520;15.106;2023-04-10T05:01:26;101405.59;;;11.54;61.68
54556;BME280;57291;37.520;15.106;2023-04-10T05:04:16;101400.56;;;11.37;63.48
54556;BME280;57291;37.520;15.106;2023-04-10T05:07:02;101407.69;;;11.96;63.09
54556;BME280;57291;37.520;15.106;2023-04-10T05:09:47;101411.38;;;12.35;62.23
54556;BME280;57291;37.520;15.106;2023-04-10T05:12:33;101410.81;;;12.81;60.05
54556;BME280;57291;37.520;15.106;2023-04-10T05:15:19;101420.94;;;13.18;57.64
54556;BME280;57291;37.520;15.106;2023-04-10T05:18:10;101428.34;;;14.29;55.25
54556;BME280;57291;37.520;15.106;2023-04-10T05:20:54;101420.03;;;15.48;51.04
54556;BME280;57291;37.520;15.106;2023-04-10T05:23:40;101425.63;;;16.68;48.27
54556;BME280;57291;37.520;15.106;2023-04-10T05:26:40;101428.78;;;17.71;46.41
54556;BME280;57291;37.520;15.106;2023-04-10T05:29:43;101432.38;;;18.57;44.26
54556;BME280;57291;37.520;15.106;2023-04-10T05:32:31;101418.56;;;19.16;41.98
54556;BME280;57291;37.520;15.106;2023-04-10T05:35:17;101432.75;;;19.93;41.63
54556;BME280;57291;37.520;15.106;2023-04-10T05:38:05;101438.44;;;20.46;39.17
54556;BME280;57291;37.520;15.106;2023-04-10T05:40:32;101435.88;;;21.02;38.11
54556;BME280;57291;37.520;15.106;2023-04-10T05:43:19;101435.59;;;21.60;37.43
54556;BME280;57291;37.520;15.106;2023-04-10T05:46:10;101428.94;;;21.20;35.13
54556;BME280;57291;37.520;15.106;2023-04-10T05:49:00;101425.50;;;22.11;36.37
54556;BME280;57291;37.520;15.106;2023-04-10T05:51:47;101432.75;;;22.99;34.53
54556;BME280;57291;37.520;15.106;2023-04-10T05:54:31;101427.94;;;22.29;34.11
54556;BME280;57291;37.520;15.106;2023-04-10T05:57:16;101424.88;;;22.50;34.43
54556;BME280;57291;37.520;15.106;2023-04-10T06:00:10;101428.00;;;21.57;35.63
54556;BME280;57291;37.520;15.106;2023-04-10T06:02:40;101434.25;;;21.53;37.26
54556;BME280;57291;37.520;15.106;2023-04-10T06:05:16;101441.88;;;22.16;34.20
54556;BME280;57291;37.520;15.106;2023-04-10T06:07:44;101442.09;;;22.75;34.52
54556;BME280;57291;37.520;15.106;2023-04-10T06:10:13;101432.69;;;22.95;33.38
54556;BME280;57291;37.520;15.106;2023-04-10T06:12:40;101431.91;;;23.53;32.19
54556;BME280;57291;37.520;15.106;2023-04-10T06:15:09;101425.53;;;23.52;32.00
54556;BME280;57291;37.520;15.106;2023-04-10T06:17:41;101429.94;;;23.96;30.61
54556;BME280;57291;37.520;15.106;2023-04-10T06:20:09;101433.63;;;24.49;31.34
54556;BME280;57291;37.520;15.106;2023-04-10T06:22:36;101421.53;;;25.18;29.73
54556;BME280;57291;37.520;15.106;2023-04-10T06:25:04;101424.53;;;25.39;29.38
54556;BME280;57291;37.520;15.106;2023-04-10T06:27:33;101423.56;;;25.95;28.24
54556;BME280;57291;37.520;15.106;2023-04-10T06:30:02;101422.06;;;26.05;28.73
54556;BME280;57291;37.520;15.106;2023-04-10T06:32:30;101416.91;;;25.02;30.25
54556;BME280;57291;37.520;15.106;2023-04-10T06:34:57;101413.59;;;24.93;30.34
54556;BME280;57291;37.520;15.106;2023-04-10T06:37:34;101407.88;;;25.09;29.00
54556;BME280;57291;37.520;15.106;2023-04-10T06:40:10;101403.75;;;24.99;29.42
54556;BME280;57291;37.520;15.106;2023-04-10T06:42:37;101394.09;;;25.20;28.89
54556;BME280;57291;37.520;15.106;2023-04-10T06:45:21;101393.06;;;25.01;28.86
54556;BME280;57291;37.520;15.106;2023-04-10T06:47:48;101398.28;;;24.76;29.93
54556;BME280;57291;37.520;15.106;2023-04-10T06:50:16;101395.59;;;24.84;28.24
54556;BME280;57291;37.520;15.106;2023-04-10T06:52:46;101395.69;;;25.17;28.98
54556;BME280;57291;37.520;15.106;2023-04-10T06:55:14;101396.06;;;25.16;29.09
54556;BME280;57291;37.520;15.106;2023-04-10T06:57:41;101391.72;;;24.35;30.07
54556;BME280;57291;37.520;15.106;2023-04-10T07:00:09;101391.31;;;25.20;29.31
54556;BME280;57291;37.520;15.106;2023-04-10T07:02:36;101383.28;;;24.81;29.28
54556;BME280;57291;37.520;15.106;2023-04-10T07:05:04;101373.84;;;24.89;29.63
54556;BME280;57291;37.520;15.106;2023-04-10T07:07:31;101376.00;;;24.73;29.25
54556;BME280;57291;37.520;15.106;2023-04-10T07:09:58;101377.50;;;25.27;28.62
54556;BME280;57291;37.520;15.106;2023-04-10T07:12:25;101376.69;;;26.01;27.95
54556;BME280;57291;37.520;15.106;2023-04-10T07:14:53;101379.00;;;26.47;27.84
54556;BME280;57291;37.520;15.106;2023-04-10T07:17:20;101378.28;;;26.54;27.70
54556;BME280;57291;37.520;15.106;2023-04-10T07:19:47;101376.53;;;26.35;27.50
54556;BME280;57291;37.520;15.106;2023-04-10T07:22:14;101368.38;;;26.60;26.25
54556;BME280;57291;37.520;15.106;2023-04-10T07:24:42;101352.47;;;26.67;25.51
54556;BME280;57291;37.520;15.106;2023-04-10T07:27:09;101358.13;;;26.85;26.04
54556;BME280;57291;37.520;15.106;2023-04-10T07:29:38;101353.84;;;26.36;25.62
54556;BME280;57291;37.520;15.106;2023-04-10T07:32:05;101347.91;;;25.45;27.18
54556;BME280;57291;37.520;15.106;2023-04-10T07:34:33;101344.16;;;24.67;28.58
54556;BME280;57291;37.520;15.106;2023-04-10T07:37:00;101357.53;;;24.57;28.41
54556;BME280;57291;37.520;15.106;2023-04-10T07:39:27;101364.38;;;25.24;27.46
54556;BME280;57291;37.520;15.106;2023-04-10T07:41:54;101360.59;;;25.43;27.21
54556;BME280;57291;37.520;15.106;2023-04-10T07:44:21;101363.06;;;24.31;27.48
54556;BME280;57291;37.520;15.106;2023-04-10T07:46:48;101373.88;;;24.63;27.95
54556;BME280;57291;37.520;15.106;2023-04-10T07:49:17;101373.81;;;25.16;28.87
54556;BME280;57291;37.520;15.106;2023-04-10T07:51:45;101395.34;;;24.39;28.18
54556;BME280;57291;37.520;15.106;2023-04-10T07:54:12;101390.91;;;23.65;28.50
54556;BME280;57291;37.520;15.106;2023-04-10T07:56:39;101392.44;;;22.85;30.49
54556;BME280;57291;37.520;15.106;2023-04-10T07:59:06;101412.56;;;21.99;31.25
54556;BME280;57291;37.520;15.106;2023-04-10T08:01:34;101414.97;;;20.89;33.56
54556;BME280;57291;37.520;15.106;2023-04-10T08:04:01;101442.19;;;19.59;37.68
54556;BME280;57291;37.520;15.106;2023-04-10T08:06:31;101445.09;;;18.40;41.56
54556;BME280;57291;37.520;15.106;2023-04-10T08:08:59;101446.69;;;17.94;43.02
54556;BME280;57291;37.520;15.106;2023-04-10T08:11:32;101444.59;;;17.83;43.08
54556;BME280;57291;37.520;15.106;2023-04-10T08:14:03;101437.72;;;17.24;44.46
54556;BME280;57291;37.520;15.106;2023-04-10T08:16:33;101443.03;;;17.29;44.90
54556;BME280;57291;37.520;15.106;2023-04-10T08:19:01;101447.72;;;17.11;45.76
54556;BME280;57291;37.520;15.106;2023-04-10T08:21:30;101454.50;;;17.49;44.78
54556;BME280;57291;37.520;15.106;2023-04-10T08:24:01;101459.09;;;18.18;43.95
54556;BME280;57291;37.520;15.106;2023-04-10T08:26:29;101465.25;;;18.15;43.24
54556;BME280;57291;37.520;15.106;2023-04-10T08:28:57;101483.44;;;17.64;44.11
54556;BME280;57291;37.520;15.106;2023-04-10T08:31:27;101478.44;;;16.74;45.63
54556;BME280;57291;37.520;15.106;2023-04-10T08:33:55;101471.13;;;16.60;46.39
54556;BME280;57291;37.520;15.106;2023-04-10T08:36:23;101463.59;;;16.35;47.10
54556;BME280;57291;37.520;15.106;2023-04-10T08:38:50;101464.75;;;16.34;47.17
54556;BME280;57291;37.520;15.106;2023-04-10T08:41:18;101461.28;;;16.59;46.66
54556;BME280;57291;37.520;15.106;2023-04-10T08:43:46;101461.44;;;16.54;46.78
54556;BME280;57291;37.520;15.106;2023-04-10T08:46:15;101457.81;;;16.36;46.39
54556;BME280;57291;37.520;15.106;2023-04-10T08:49:01;101465.50;;;15.94;47.58
54556;BME280;57291;37.520;15.106;2023-04-10T08:51:44;101460.28;;;15.84;47.73
54556;BME280;57291;37.520;15.106;2023-04-10T08:54:20;101464.34;;;15.87;47.56
54556;BME280;57291;37.520;15.106;2023-04-10T08:56:53;101460.97;;;15.90;46.64
54556;BME280;57291;37.520;15.106;2023-04-10T08:59:21;101461.91;;;15.85;46.43
54556;BME280;57291;37.520;15.106;2023-04-10T09:01:48;101439.06;;;15.99;46.77
54556;BME280;57291;37.520;15.106;2023-04-10T09:04:16;101412.06;;;15.83;47.94
54556;BME280;57291;37.520;15.106;2023-04-10T09:06:44;101389.53;;;15.64;49.13
54556;BME280;57291;37.520;15.106;2023-04-10T09:09:11;101390.53;;;15.68;48.99
54556;BME280;57291;37.520;15.106;2023-04-10T09:14:29;101395.69;;;16.89;46.76
54556;BME280;57291;37.520;15.106;2023-04-10T09:17:16;101415.69;;;17.50;44.93
54556;BME280;57291;37.520;15.106;2023-04-10T09:19:45;101416.63;;;17.63;44.01
54556;BME280;57291;37.520;15.106;2023-04-10T09:22:13;101405.69;;;17.20;44.93
54556;BME280;57291;37.520;15.106;2023-04-10T09:24:45;101383.72;;;16.85;47.46
54556;BME280;57291;37.520;15.106;2023-04-10T09:27:30;101381.63;;;16.82;47.67
54556;BME280;57291;37.520;15.106;2023-04-10T09:29:58;101397.31;;;16.33;49.20
54556;BME280;57291;37.520;15.106;2023-04-10T09:32:46;101391.13;;;16.84;48.64
54556;BME280;57291;37.520;15.106;2023-04-10T09:35:14;101372.69;;;17.46;47.45
54556;BME280;57291;37.520;15.106;2023-04-10T09:37:44;101364.97;;;17.13;46.39
54556;BME280;57291;37.520;15.106;2023-04-10T09:40:20;101365.75;;;17.48;45.87
54556;BME280;57291;37.520;15.106;2023-04-10T09:42:48;101349.81;;;16.98;47.16
54556;BME280;57291;37.520;15.106;2023-04-10T09:45:15;101341.56;;;17.16;48.13
54556;BME280;57291;37.520;15.106;2023-04-10T09:48:06;101325.72;;;17.04;49.01
54556;BME280;57291;37.520;15.106;2023-04-10T09:50:38;101306.16;;;16.71;50.61
54556;BME280;57291;37.520;15.106;2023-04-10T09:53:08;101308.06;;;15.78;53.64
54556;BME280;57291;37.520;15.106;2023-04-10T09:55:35;101324.09;;;15.40;55.57
54556;BME280;57291;37.520;15.106;2023-04-10T09:58:04;101308.00;;;15.16;56.79
54556;BME280;57291;37.520;15.106;2023-04-10T10:00:38;101310.88;;;15.11;55.95
54556;BME280;57291;37.520;15.106;2023-04-10T10:03:11;101315.16;;;15.03;57.47
54556;BME280;57291;37.520;15.106;2023-04-10T10:05:41;101307.81;;;14.90;57.36
54556;BME280;57291;37.520;15.106;2023-04-10T10:08:09;101302.72;;;14.97;54.91
54556;BME280;57291;37.520;15.106;2023-04-10T10:10:56;101302.06;;;15.14;55.15
54556;BME280;57291;37.520;15.106;2023-04-10T10:13:36;101302.84;;;15.37;54.87
54556;BME280;57291;37.520;15.106;2023-04-10T10:18:50;101310.31;;;15.76;52.94
54556;BME280;57291;37.520;15.106;2023-04-10T10:21:19;101327.84;;;15.66;53.04
54556;BME280;57291;37.520;15.106;2023-04-10T10:23:47;101334.94;;;15.45;52.99
54556;BME280;57291;37.520;15.106;2023-04-10T10:26:19;101336.50;;;15.37;54.51
54556;BME280;57291;37.520;15.106;2023-04-10T10:28:50;101345.03;;;15.36;54.59
54556;BME280;57291;37.520;15.106;2023-04-10T10:31:21;101331.41;;;15.22;56.25
54556;BME280;57291;37.520;15.106;2023-04-10T10:33:53;101338.91;;;15.61;54.38
54556;BME280;57291;37.520;15.106;2023-04-10T10:36:21;101309.63;;;16.10;50.86
54556;BME280;57291;37.520;15.106;2023-04-10T10:39:17;101324.06;;;16.51;50.42
54556;BME280;57291;37.520;15.106;2023-04-10T10:44:46;101325.06;;;16.63;52.25
54556;BME280;57291;37.520;15.106;2023-04-10T10:47:21;101305.53;;;16.74;50.74
54556;BME280;57291;37.520;15.106;2023-04-10T10:49:54;101300.59;;;16.18;52.48
54556;BME280;57291;37.520;15.106;2023-04-10T10:52:45;101305.16;;;16.32;52.30
54556;BME280;57291;37.520;15.106;2023-04-10T10:57:50;101284.50;;;16.26;53.39
54556;BME280;57291;37.520;15.106;2023-04-10T11:00:21;101290.31;;;16.24;52.88
54556;BME280;57291;37.520;15.106;2023-04-10T11:05:54;101290.25;;;16.15;54.90
54556;BME280;57291;37.520;15.106;2023-04-10T11:08:41;101287.00;;;15.65;55.72
54556;BME280;57291;37.520;15.106;2023-04-10T11:11:12;101280.53;;;15.92;56.37
54556;BME280;57291;37.520;15.106;2023-04-10T11:19:04;101268.00;;;16.08;55.83
54556;BME280;57291;37.520;15.106;2023-04-10T11:22:02;101280.63;;;16.27;56.41
54556;BME280;57291;37.520;15.106;2023-04-10T11:24:58;101270.34;;;16.58;57.54
54556;BME280;57291;37.520;15.106;2023-04-10T11:27:39;101266.44;;;16.51;56.67
54556;BME280;57291;37.520;15.106;2023-04-10T11:30:29;101264.84;;;16.32;56.47
54556;BME280;57291;37.520;15.106;2023-04-10T11:32:58;101271.63;;;16.52;56.42
54556;BME280;57291;37.520;15.106;2023-04-10T11:35:26;101247.25;;;16.42;56.21
54556;BME280;57291;37.520;15.106;2023-04-10T11:38:11;101242.03;;;15.97;56.78
54556;BME280;57291;37.520;15.106;2023-04-10T11:41:02;101256.38;;;15.63;57.32
54556;BME280;57291;37.520;15.106;2023-04-10T11:43:31;101259.41;;;15.84;58.17
54556;BME280;57291;37.520;15.106;2023-04-10T11:46:04;101252.41;;;16.26;54.28
54556;BME280;57291;37.520;15.106;2023-04-10T11:48:32;101260.19;;;16.76;54.07
54556;BME280;57291;37.520;15.106;2023-04-10T11:51:06;101265.16;;;17.18;51.85
54556;BME280;57291;37.520;15.106;2023-04-10T11:53:34;101241.75;;;17.03;47.75
54556;BME280;57291;37.520;15.106;2023-04-10T11:56:01;101254.38;;;16.95;49.94
54556;BME280;57291;37.520;15.106;2023-04-10T11:58:29;101228.63;;;17.64;47.45
54556;BME280;57291;37.520;15.106;2023-04-10T12:01:02;101228.19;;;18.13;46.67
54556;BME280;57291;37.520;15.106;2023-04-10T12:06:06;101225.44;;;19.09;44.14
54556;BME280;57291;37.520;15.106;2023-04-10T12:08:35;101219.09;;;18.21;47.78
54556;BME280;57291;37.520;15.106;2023-04-10T12:11:03;101233.56;;;18.09;46.29
54556;BME280;57291;37.520;15.106;2023-04-10T12:13:30;101248.50;;;17.99;46.47
54556;BME280;57291;37.520;15.106;2023-04-10T12:16:03;101249.66;;;18.19;46.84
54556;BME280;57291;37.520;15.106;2023-04-10T12:18:30;101255.19;;;17.90;46.19
54556;BME280;57291;37.520;15.106;2023-04-10T12:20:58;101281.81;;;17.59;49.47
54556;BME280;57291;37.520;15.106;2023-04-10T12:23:27;101301.78;;;17.86;50.92
54556;BME280;57291;37.520;15.106;2023-04-10T12:26:16;101288.69;;;17.36;50.63
54556;BME280;57291;37.520;15.106;2023-04-10T12:28:52;101289.69;;;17.23;51.48
54556;BME280;57291;37.520;15.106;2023-04-10T12:33:54;101278.06;;;16.74;51.61
54556;BME280;57291;37.520;15.106;2023-04-10T12:36:28;101232.72;;;16.68;52.08
54556;BME280;57291;37.520;15.106;2023-04-10T12:38:57;101245.94;;;17.00;50.53
54556;BME280;57291;37.520;15.106;2023-04-10T12:41:27;101233.06;;;17.39;50.15
54556;BME280;57291;37.520;15.106;2023-04-10T12:44:10;101235.69;;;17.27;50.89
54556;BME280;57291;37.520;15.106;2023-04-10T12:46:39;101236.84;;;17.26;49.25
54556;BME280;57291;37.520;15.106;2023-04-10T12:49:16;101214.69;;;17.31;48.70
54556;BME280;57291;37.520;15.106;2023-04-10T12:51:49;101230.63;;;16.91;50.69
54556;BME280;57291;37.520;15.106;2023-04-10T12:56:53;101208.72;;;17.20;45.14
54556;BME280;57291;37.520;15.106;2023-04-10T12:59:21;101228.25;;;17.27;45.78
54556;BME280;57291;37.520;15.106;2023-04-10T13:01:49;101221.34;;;17.21;48.99
54556;BME280;57291;37.520;15.106;2023-04-10T13:04:17;101191.88;;;16.83;48.90
54556;BME280;57291;37.520;15.106;2023-04-10T13:06:45;101190.72;;;16.84;48.01
54556;BME280;57291;37.520;15.106;2023-04-10T13:09:13;101204.72;;;17.18;45.71
54556;BME280;57291;37.520;15.106;2023-04-10T13:11:41;101214.25;;;17.58;46.58
54556;BME280;57291;37.520;15.106;2023-04-10T13:14:12;101183.38;;;17.53;47.61
54556;BME280;57291;37.520;15.106;2023-04-10T13:16:39;101186.09;;;17.62;47.12
54556;BME280;57291;37.520;15.106;2023-04-10T13:19:06;101180.94;;;17.60;42.55
54556;BME280;57291;37.520;15.106;2023-04-10T13:21:34;101176.50;;;17.76;43.96
54556;BME280;57291;37.520;15.106;2023-04-10T13:24:01;101166.06;;;18.12;39.69
54556;BME280;57291;37.520;15.106;2023-04-10T13:26:28;101173.13;;;17.71;44.13
54556;BME280;57291;37.520;15.106;2023-04-10T13:28:55;101188.84;;;17.62;49.05
54556;BME280;57291;37.520;15.106;2023-04-10T13:31:22;101153.31;;;17.86;46.51
54556;BME280;57291;37.520;15.106;2023-04-10T13:33:50;101195.56;;;17.73;44.41
54556;BME280;57291;37.520;15.106;2023-04-10T13:36:17;101192.25;;;17.58;50.78
54556;BME280;57291;37.520;15.106;2023-04-10T13:38:44;101195.22;;;16.98;52.78
54556;BME280;57291;37.520;15.106;2023-04-10T13:41:12;101198.66;;;16.69;54.75
54556;BME280;57291;37.520;15.106;2023-04-10T13:43:39;101189.78;;;16.28;56.42